sensor_id;sensor_type;location;lat;lon;timestamp;P1;durP1;ratioP1;P2;durP2;ratioP2
7477;SDS011;3780;42.424;25.636;2023-02-15T00:02:21;21.00;;;14.70;;
7477;SDS011;3780;42.424;25.636;2023-02-15T00:04:46;22.30;;;14.75;;
7477;SDS011;3780;42.424;25.636;2023-02-15T00:07:13;21.17;;;13.95;;
7477;SDS011;3780;42.424;25.636;2023-02-15T00:09:39;22.17;;;15.60;;
7477;SDS011;3780;42.424;25.636;2023-02-15T00:12:04;20.33;;;15.05;;
7477;SDS011;3780;42.424;25.636;2023-02-15T00:14:29;22.20;;;15.57;;
7477;SDS011;3780;42.424;25.636;2023-02-15T00:16:54;21.65;;;15.68;;
7477;SDS011;3780;42.424;25.636;2023-02-15T00:19:20;21.30;;;14.90;;
7477;SDS011;3780;42.424;25.636;2023-02-15T00:21:46;23.27;;;16.80;;
7477;SDS011;3780;42.424;25.636;2023-02-15T00:24:12;20.50;;;15.20;;
7477;SDS011;3780;42.424;25.636;2023-02-15T00:26:38;20.67;;;14.35;;
7477;SDS011;3780;42.424;25.636;2023-02-15T00:29:04;21.25;;;14.88;;
7477;SDS011;3780;42.424;25.636;2023-02-15T00:31:30;20.80;;;15.20;;
7477;SDS011;3780;42.424;25.636;2023-02-15T00:34:06;20.70;;;14.20;;
7477;SDS011;3780;42.424;25.636;2023-02-15T00:36:32;19.60;;;14.98;;
7477;SDS011;3780;42.424;25.636;2023-02-15T00:38:57;18.85;;;13.68;;
7477;SDS011;3780;42.424;25.636;2023-02-15T00:41:22;20.23;;;14.90;;
7477;SDS011;3780;42.424;25.636;2023-02-15T00:43:48;23.00;;;14.90;;
7477;SDS011;3780;42.424;25.636;2023-02-15T00:46:13;22.40;;;14.95;;
7477;SDS011;3780;42.424;25.636;2023-02-15T00:48:39;19.92;;;14.20;;
7477;SDS011;3780;42.424;25.636;2023-02-15T00:51:04;22.15;;;15.05;;
7477;SDS011;3780;42.424;25.636;2023-02-15T00:53:29;20.45;;;14.20;;
7477;SDS011;3780;42.424;25.636;2023-02-15T00:55:55;22.40;;;14.70;;
7477;SDS011;3780;42.424;25.636;2023-02-15T00:58:20;19.83;;;15.23;;
7477;SDS011;3780;42.424;25.636;2023-02-15T01:00:46;19.65;;;14.93;;
7477;SDS011;3780;42.424;25.636;2023-02-15T01:03:12;26.00;;;15.48;;
7477;SDS011;3780;42.424;25.636;2023-02-15T01:05:38;20.67;;;15.10;;
7477;SDS011;3780;42.424;25.636;2023-02-15T01:08:03;20.88;;;15.50;;
7477;SDS011;3780;42.424;25.636;2023-02-15T01:10:29;24.27;;;14.88;;
7477;SDS011;3780;42.424;25.636;2023-02-15T01:12:54;21.38;;;15.40;;
7477;SDS011;3780;42.424;25.636;2023-02-15T01:15:20;20.25;;;14.93;;
7477;SDS011;3780;42.424;25.636;2023-02-15T01:17:46;17.67;;;13.75;;
7477;SDS011;3780;42.424;25.636;2023-02-15T01:20:18;18.15;;;13.65;;
7477;SDS011;3780;42.424;25.636;2023-02-15T01:22:43;19.95;;;14.95;;
7477;SDS011;3780;42.424;25.636;2023-02-15T01:25:09;21.75;;;15.77;;
7477;SDS011;3780;42.424;25.636;2023-02-15T01:27:34;21.80;;;15.98;;
7477;SDS011;3780;42.424;25.636;2023-02-15T01:29:59;20.45;;;14.85;;
7477;SDS011;3780;42.424;25.636;2023-02-15T01:32:25;21.98;;;15.60;;
7477;SDS011;3780;42.424;25.636;2023-02-15T01:34:51;21.63;;;16.00;;
7477;SDS011;3780;42.424;25.636;2023-02-15T01:37:17;22.75;;;16.55;;
7477;SDS011;3780;42.424;25.636;2023-02-15T01:39:42;23.13;;;16.67;;
7477;SDS011;3780;42.424;25.636;2023-02-15T01:42:10;22.48;;;16.50;;
7477;SDS011;3780;42.424;25.636;2023-02-15T01:44:49;29.10;;;18.30;;
7477;SDS011;3780;42.424;25.636;2023-02-15T01:47:19;23.88;;;17.63;;
7477;SDS011;3780;42.424;25.636;2023-02-15T01:49:45;22.95;;;17.08;;
7477;SDS011;3780;42.424;25.636;2023-02-15T01:52:12;23.90;;;17.17;;
7477;SDS011;3780;42.424;25.636;2023-02-15T01:54:38;34.13;;;18.90;;
7477;SDS011;3780;42.424;25.636;2023-02-15T01:57:07;30.85;;;21.20;;
7477;SDS011;3780;42.424;25.636;2023-02-15T01:59:34;32.42;;;19.10;;
7477;SDS011;3780;42.424;25.636;2023-02-15T02:02:01;30.65;;;18.02;;
7477;SDS011;3780;42.424;25.636;2023-02-15T02:04:35;29.65;;;19.77;;
7477;SDS011;3780;42.424;25.636;2023-02-15T02:07:03;27.92;;;17.33;;
7477;SDS011;3780;42.424;25.636;2023-02-15T02:09:29;27.23;;;17.40;;
7477;SDS011;3780;42.424;25.636;2023-02-15T02:11:54;27.27;;;17.77;;
7477;SDS011;3780;42.424;25.636;2023-02-15T02:14:20;25.75;;;18.00;;
7477;SDS011;3780;42.424;25.636;2023-02-15T02:25:12;28.35;;;19.13;;
7477;SDS011;3780;42.424;25.636;2023-02-15T02:27:48;29.98;;;19.92;;
7477;SDS011;3780;42.424;25.636;2023-02-15T02:45:47;25.75;;;18.70;;
7477;SDS011;3780;42.424;25.636;2023-02-15T02:48:17;24.60;;;18.25;;
7477;SDS011;3780;42.424;25.636;2023-02-15T02:50:44;27.83;;;18.35;;
7477;SDS011;3780;42.424;25.636;2023-02-15T02:53:10;27.27;;;19.30;;
7477;SDS011;3780;42.424;25.636;2023-02-15T03:00:42;27.55;;;20.00;;
7477;SDS011;3780;42.424;25.636;2023-02-15T03:05:34;28.65;;;20.48;;
7477;SDS011;3780;42.424;25.636;2023-02-15T03:08:01;26.58;;;18.63;;
7477;SDS011;3780;42.424;25.636;2023-02-15T03:10:31;26.20;;;18.23;;
7477;SDS011;3780;42.424;25.636;2023-02-15T03:12:57;26.60;;;19.60;;
7477;SDS011;3780;42.424;25.636;2023-02-15T03:15:24;26.15;;;18.98;;
7477;SDS011;3780;42.424;25.636;2023-02-15T03:17:57;31.95;;;21.48;;
7477;SDS011;3780;42.424;25.636;2023-02-15T03:20:26;25.20;;;18.30;;
7477;SDS011;3780;42.424;25.636;2023-02-15T03:22:55;28.48;;;18.48;;
7477;SDS011;3780;42.424;25.636;2023-02-15T03:25:22;33.65;;;22.33;;
7477;SDS011;3780;42.424;25.636;2023-02-15T03:27:50;32.90;;;19.88;;
7477;SDS011;3780;42.424;25.636;2023-02-15T03:30:17;30.75;;;20.88;;
7477;SDS011;3780;42.424;25.636;2023-02-15T03:32:43;26.15;;;19.02;;
7477;SDS011;3780;42.424;25.636;2023-02-15T03:35:09;30.83;;;20.42;;
7477;SDS011;3780;42.424;25.636;2023-02-15T03:37:40;28.45;;;20.20;;
7477;SDS011;3780;42.424;25.636;2023-02-15T03:43:04;31.40;;;19.75;;
7477;SDS011;3780;42.424;25.636;2023-02-15T03:45:34;27.10;;;19.73;;
7477;SDS011;3780;42.424;25.636;2023-02-15T03:48:01;25.92;;;19.02;;
7477;SDS011;3780;42.424;25.636;2023-02-15T03:50:27;29.00;;;19.08;;
7477;SDS011;3780;42.424;25.636;2023-02-15T03:53:13;26.60;;;18.38;;
7477;SDS011;3780;42.424;25.636;2023-02-15T03:55:39;24.58;;;18.42;;
7477;SDS011;3780;42.424;25.636;2023-02-15T03:58:04;27.45;;;19.33;;
7477;SDS011;3780;42.424;25.636;2023-02-15T04:00:49;28.58;;;18.92;;
7477;SDS011;3780;42.424;25.636;2023-02-15T04:03:45;25.80;;;18.80;;
7477;SDS011;3780;42.424;25.636;2023-02-15T04:06:14;28.30;;;19.13;;
7477;SDS011;3780;42.424;25.636;2023-02-15T04:08:39;25.58;;;19.50;;
7477;SDS011;3780;42.424;25.636;2023-02-15T04:11:23;28.48;;;19.38;;
7477;SDS011;3780;42.424;25.636;2023-02-15T04:13:48;29.95;;;19.52;;
7477;SDS011;3780;42.424;25.636;2023-02-15T04:16:21;27.23;;;18.98;;
7477;SDS011;3780;42.424;25.636;2023-02-15T04:18:46;32.08;;;20.38;;
7477;SDS011;3780;42.424;25.636;2023-02-15T04:21:30;30.90;;;20.05;;
7477;SDS011;3780;42.424;25.636;2023-02-15T04:24:14;31.23;;;20.88;;
7477;SDS011;3780;42.424;25.636;2023-02-15T04:26:59;26.10;;;18.20;;
7477;SDS011;3780;42.424;25.636;2023-02-15T04:29:25;26.95;;;18.75;;
7477;SDS011;3780;42.424;25.636;2023-02-15T04:31:51;28.70;;;18.55;;
7477;SDS011;3780;42.424;25.636;2023-02-15T04:34:17;30.50;;;18.30;;
7477;SDS011;3780;42.424;25.636;2023-02-15T04:36:42;27.73;;;17.52;;
7477;SDS011;3780;42.424;25.636;2023-02-15T04:39:08;27.60;;;18.58;;
7477;SDS011;3780;42.424;25.636;2023-02-15T04:41:33;24.60;;;18.75;;
7477;SDS011;3780;42.424;25.636;2023-02-15T04:44:00;26.90;;;19.27;;
7477;SDS011;3780;42.424;25.636;2023-02-15T04:46:26;25.85;;;18.83;;
7477;SDS011;3780;42.424;25.636;2023-02-15T04:48:51;29.42;;;17.67;;
7477;SDS011;3780;42.424;25.636;2023-02-15T04:51:16;24.85;;;18.15;;
7477;SDS011;3780;42.424;25.636;2023-02-15T04:53:42;25.30;;;17.92;;
7477;SDS011;3780;42.424;25.636;2023-02-15T04:56:07;29.45;;;19.30;;
7477;SDS011;3780;42.424;25.636;2023-02-15T04:58:32;24.48;;;17.17;;
7477;SDS011;3780;42.424;25.636;2023-02-15T05:00:58;23.75;;;17.25;;
7477;SDS011;3780;42.424;25.636;2023-02-15T05:03:24;26.48;;;16.73;;
7477;SDS011;3780;42.424;25.636;2023-02-15T05:05:49;23.90;;;16.90;;
7477;SDS011;3780;42.424;25.636;2023-02-15T05:08:14;26.30;;;17.52;;
7477;SDS011;3780;42.424;25.636;2023-02-15T05:10:40;26.98;;;18.80;;
7477;SDS011;3780;42.424;25.636;2023-02-15T05:13:05;23.02;;;16.77;;
7477;SDS011;3780;42.424;25.636;2023-02-15T05:15:30;24.52;;;17.92;;
7477;SDS011;3780;42.424;25.636;2023-02-15T05:17:56;25.58;;;17.48;;
7477;SDS011;3780;42.424;25.636;2023-02-15T05:20:21;26.90;;;17.73;;
7477;SDS011;3780;42.424;25.636;2023-02-15T05:22:46;27.60;;;18.70;;
7477;SDS011;3780;42.424;25.636;2023-02-15T05:25:12;26.95;;;17.88;;
7477;SDS011;3780;42.424;25.636;2023-02-15T05:27:56;25.33;;;16.67;;
7477;SDS011;3780;42.424;25.636;2023-02-15T05:30:39;24.77;;;17.95;;
7477;SDS011;3780;42.424;25.636;2023-02-15T05:33:08;29.25;;;18.23;;
7477;SDS011;3780;42.424;25.636;2023-02-15T05:35:33;28.92;;;17.55;;
7477;SDS011;3780;42.424;25.636;2023-02-15T05:37:59;29.63;;;17.67;;
7477;SDS011;3780;42.424;25.636;2023-02-15T05:40:24;36.75;;;19.10;;
7477;SDS011;3780;42.424;25.636;2023-02-15T05:42:49;33.50;;;20.88;;
7477;SDS011;3780;42.424;25.636;2023-02-15T05:45:15;30.45;;;18.80;;
7477;SDS011;3780;42.424;25.636;2023-02-15T05:47:40;34.20;;;19.33;;
7477;SDS011;3780;42.424;25.636;2023-02-15T05:50:06;34.67;;;19.90;;
7477;SDS011;3780;42.424;25.636;2023-02-15T05:52:31;32.85;;;20.45;;
7477;SDS011;3780;42.424;25.636;2023-02-15T05:54:57;33.75;;;20.42;;
7477;SDS011;3780;42.424;25.636;2023-02-15T05:57:23;36.65;;;20.70;;
7477;SDS011;3780;42.424;25.636;2023-02-15T05:59:48;35.92;;;20.88;;
7477;SDS011;3780;42.424;25.636;2023-02-15T06:02:13;48.92;;;25.75;;
7477;SDS011;3780;42.424;25.636;2023-02-15T06:04:38;39.88;;;22.08;;
7477;SDS011;3780;42.424;25.636;2023-02-15T06:07:04;48.45;;;25.13;;
7477;SDS011;3780;42.424;25.636;2023-02-15T06:09:29;49.95;;;22.55;;
7477;SDS011;3780;42.424;25.636;2023-02-15T06:11:54;45.28;;;22.08;;
7477;SDS011;3780;42.424;25.636;2023-02-15T06:14:20;48.70;;;21.85;;
7477;SDS011;3780;42.424;25.636;2023-02-15T06:16:45;54.72;;;22.63;;
7477;SDS011;3780;42.424;25.636;2023-02-15T06:19:11;53.38;;;20.85;;
7477;SDS011;3780;42.424;25.636;2023-02-15T06:21:36;45.20;;;22.48;;
7477;SDS011;3780;42.424;25.636;2023-02-15T06:24:02;73.90;;;25.15;;
7477;SDS011;3780;42.424;25.636;2023-02-15T06:26:27;75.18;;;24.92;;
7477;SDS011;3780;42.424;25.636;2023-02-15T06:28:53;42.40;;;22.98;;
7477;SDS011;3780;42.424;25.636;2023-02-15T06:31:18;52.45;;;24.52;;
7477;SDS011;3780;42.424;25.636;2023-02-15T06:33:43;64.25;;;28.00;;
7477;SDS011;3780;42.424;25.636;2023-02-15T06:36:08;67.95;;;32.35;;
7477;SDS011;3780;42.424;25.636;2023-02-15T06:38:34;77.40;;;33.03;;
7477;SDS011;3780;42.424;25.636;2023-02-15T06:40:59;69.97;;;35.30;;
7477;SDS011;3780;42.424;25.636;2023-02-15T06:43:24;98.80;;;37.22;;
7477;SDS011;3780;42.424;25.636;2023-02-15T06:45:50;64.15;;;31.10;;
7477;SDS011;3780;42.424;25.636;2023-02-15T06:48:15;196.23;;;49.10;;
7477;SDS011;3780;42.424;25.636;2023-02-15T06:50:41;129.00;;;44.33;;
7477;SDS011;3780;42.424;25.636;2023-02-15T06:53:06;99.57;;;48.88;;
7477;SDS011;3780;42.424;25.636;2023-02-15T06:55:31;79.60;;;37.90;;
7477;SDS011;3780;42.424;25.636;2023-02-15T06:57:57;59.17;;;34.95;;
7477;SDS011;3780;42.424;25.636;2023-02-15T07:00:22;76.85;;;33.45;;
7477;SDS011;3780;42.424;25.636;2023-02-15T07:02:52;66.60;;;31.85;;
7477;SDS011;3780;42.424;25.636;2023-02-15T07:05:20;61.25;;;33.90;;
7477;SDS011;3780;42.424;25.636;2023-02-15T07:07:45;71.85;;;34.67;;
7477;SDS011;3780;42.424;25.636;2023-02-15T07:10:10;59.88;;;34.95;;
7477;SDS011;3780;42.424;25.636;2023-02-15T07:12:36;59.03;;;34.33;;
7477;SDS011;3780;42.424;25.636;2023-02-15T07:15:11;54.55;;;31.95;;
7477;SDS011;3780;42.424;25.636;2023-02-15T07:17:37;50.75;;;32.42;;
7477;SDS011;3780;42.424;25.636;2023-02-15T07:20:03;67.57;;;34.58;;
7477;SDS011;3780;42.424;25.636;2023-02-15T07:22:29;75.25;;;40.15;;
7477;SDS011;3780;42.424;25.636;2023-02-15T07:24:54;61.08;;;31.80;;
7477;SDS011;3780;42.424;25.636;2023-02-15T07:27:20;61.83;;;33.17;;
7477;SDS011;3780;42.424;25.636;2023-02-15T07:29:45;63.75;;;34.03;;
7477;SDS011;3780;42.424;25.636;2023-02-15T07:32:10;61.90;;;34.97;;
7477;SDS011;3780;42.424;25.636;2023-02-15T07:34:36;56.55;;;34.58;;
7477;SDS011;3780;42.424;25.636;2023-02-15T07:37:01;54.88;;;33.88;;
7477;SDS011;3780;42.424;25.636;2023-02-15T07:39:26;73.28;;;40.85;;
7477;SDS011;3780;42.424;25.636;2023-02-15T07:41:52;48.55;;;24.83;;
7477;SDS011;3780;42.424;25.636;2023-02-15T07:44:17;39.30;;;23.83;;
7477;SDS011;3780;42.424;25.636;2023-02-15T07:46:42;32.17;;;21.25;;
7477;SDS011;3780;42.424;25.636;2023-02-15T07:49:07;35.53;;;21.98;;
7477;SDS011;3780;42.424;25.636;2023-02-15T07:51:33;33.97;;;21.20;;
7477;SDS011;3780;42.424;25.636;2023-02-15T07:53:58;34.97;;;23.08;;
7477;SDS011;3780;42.424;25.636;2023-02-15T07:56:23;36.38;;;21.40;;
7477;SDS011;3780;42.424;25.636;2023-02-15T07:58:49;33.22;;;22.10;;
7477;SDS011;3780;42.424;25.636;2023-02-15T08:01:18;32.25;;;21.85;;
7477;SDS011;3780;42.424;25.636;2023-02-15T08:03:43;32.20;;;20.77;;
7477;SDS011;3780;42.424;25.636;2023-02-15T08:06:09;26.17;;;18.58;;
7477;SDS011;3780;42.424;25.636;2023-02-15T08:08:36;26.70;;;19.50;;
7477;SDS011;3780;42.424;25.636;2023-02-15T08:11:06;23.95;;;17.88;;
7477;SDS011;3780;42.424;25.636;2023-02-15T08:13:54;27.45;;;18.42;;
7477;SDS011;3780;42.424;25.636;2023-02-15T08:16:30;26.77;;;18.17;;
7477;SDS011;3780;42.424;25.636;2023-02-15T08:18:56;29.52;;;17.70;;
7477;SDS011;3780;42.424;25.636;2023-02-15T08:21:22;25.85;;;16.42;;
7477;SDS011;3780;42.424;25.636;2023-02-15T08:23:48;23.00;;;16.15;;
7477;SDS011;3780;42.424;25.636;2023-02-15T08:26:13;25.27;;;18.15;;
7477;SDS011;3780;42.424;25.636;2023-02-15T08:28:40;22.30;;;16.35;;
7477;SDS011;3780;42.424;25.636;2023-02-15T08:31:10;25.58;;;16.42;;
7477;SDS011;3780;42.424;25.636;2023-02-15T08:33:37;23.55;;;16.65;;
7477;SDS011;3780;42.424;25.636;2023-02-15T08:36:06;31.58;;;16.75;;
7477;SDS011;3780;42.424;25.636;2023-02-15T08:38:32;24.40;;;15.45;;
7477;SDS011;3780;42.424;25.636;2023-02-15T08:40:58;31.27;;;16.77;;
7477;SDS011;3780;42.424;25.636;2023-02-15T08:43:33;34.28;;;15.95;;
7477;SDS011;3780;42.424;25.636;2023-02-15T08:45:58;26.73;;;15.23;;
7477;SDS011;3780;42.424;25.636;2023-02-15T08:48:23;28.48;;;14.32;;
7477;SDS011;3780;42.424;25.636;2023-02-15T08:50:49;20.02;;;13.45;;
7477;SDS011;3780;42.424;25.636;2023-02-15T08:53:14;24.05;;;13.63;;
7477;SDS011;3780;42.424;25.636;2023-02-15T08:55:39;21.63;;;12.80;;
7477;SDS011;3780;42.424;25.636;2023-02-15T08:58:05;19.85;;;11.48;;
7477;SDS011;3780;42.424;25.636;2023-02-15T09:00:30;26.08;;;13.02;;
7477;SDS011;3780;42.424;25.636;2023-02-15T09:02:56;19.90;;;11.80;;
7477;SDS011;3780;42.424;25.636;2023-02-15T09:05:21;22.63;;;12.00;;
7477;SDS011;3780;42.424;25.636;2023-02-15T09:07:46;16.95;;;11.07;;
7477;SDS011;3780;42.424;25.636;2023-02-15T09:10:12;24.80;;;11.85;;
7477;SDS011;3780;42.424;25.636;2023-02-15T09:12:37;21.17;;;11.60;;
7477;SDS011;3780;42.424;25.636;2023-02-15T09:15:02;19.75;;;10.75;;
7477;SDS011;3780;42.424;25.636;2023-02-15T09:17:28;21.30;;;11.20;;
7477;SDS011;3780;42.424;25.636;2023-02-15T09:19:53;18.83;;;11.68;;
7477;SDS011;3780;42.424;25.636;2023-02-15T09:22:18;24.40;;;12.55;;
7477;SDS011;3780;42.424;25.636;2023-02-15T09:24:44;28.60;;;13.93;;
7477;SDS011;3780;42.424;25.636;2023-02-15T09:27:09;45.03;;;22.45;;
7477;SDS011;3780;42.424;25.636;2023-02-15T09:29:34;18.13;;;11.57;;
7477;SDS011;3780;42.424;25.636;2023-02-15T09:31:59;16.55;;;10.70;;
7477;SDS011;3780;42.424;25.636;2023-02-15T09:34:25;17.35;;;10.77;;
7477;SDS011;3780;42.424;25.636;2023-02-15T09:36:50;15.40;;;9.45;;
7477;SDS011;3780;42.424;25.636;2023-02-15T09:39:17;16.98;;;10.05;;
7477;SDS011;3780;42.424;25.636;2023-02-15T09:55:00;15.35;;;10.27;;
7477;SDS011;3780;42.424;25.636;2023-02-15T10:00:19;15.02;;;9.45;;
7477;SDS011;3780;42.424;25.636;2023-02-15T10:05:18;20.90;;;11.07;;
7477;SDS011;3780;42.424;25.636;2023-02-15T10:10:39;13.77;;;9.40;;
7477;SDS011;3780;42.424;25.636;2023-02-15T10:23:41;15.38;;;10.05;;
7477;SDS011;3780;42.424;25.636;2023-02-15T10:29:01;16.10;;;10.45;;
7477;SDS011;3780;42.424;25.636;2023-02-15T10:31:31;15.88;;;10.85;;
7477;SDS011;3780;42.424;25.636;2023-02-15T10:39:02;16.67;;;10.18;;
7477;SDS011;3780;42.424;25.636;2023-02-15T10:49:45;19.42;;;13.18;;
7477;SDS011;3780;42.424;25.636;2023-02-15T10:55:02;15.48;;;10.02;;
7477;SDS011;3780;42.424;25.636;2023-02-15T11:05:45;19.00;;;11.35;;
7477;SDS011;3780;42.424;25.636;2023-02-15T11:08:16;20.50;;;11.13;;
7477;SDS011;3780;42.424;25.636;2023-02-15T11:10:47;14.85;;;11.02;;
7477;SDS011;3780;42.424;25.636;2023-02-15T11:13:14;16.73;;;11.77;;
7477;SDS011;3780;42.424;25.636;2023-02-15T11:15:45;16.38;;;11.15;;
7477;SDS011;3780;42.424;25.636;2023-02-15T11:18:14;17.27;;;11.68;;
7477;SDS011;3780;42.424;25.636;2023-02-15T11:23:12;17.42;;;10.25;;
7477;SDS011;3780;42.424;25.636;2023-02-15T11:25:40;15.50;;;10.13;;
7477;SDS011;3780;42.424;25.636;2023-02-15T11:28:09;17.25;;;10.50;;
7477;SDS011;3780;42.424;25.636;2023-02-15T11:30:46;16.40;;;10.90;;
7477;SDS011;3780;42.424;25.636;2023-02-15T11:33:17;15.95;;;10.88;;
7477;SDS011;3780;42.424;25.636;2023-02-15T11:36:03;18.30;;;11.88;;
7477;SDS011;3780;42.424;25.636;2023-02-15T11:38:33;15.98;;;11.18;;
7477;SDS011;3780;42.424;25.636;2023-02-15T11:41:12;16.58;;;11.65;;
7477;SDS011;3780;42.424;25.636;2023-02-15T11:43:40;18.70;;;12.15;;
7477;SDS011;3780;42.424;25.636;2023-02-15T11:46:08;18.42;;;12.25;;
7477;SDS011;3780;42.424;25.636;2023-02-15T11:48:35;19.40;;;12.20;;
7477;SDS011;3780;42.424;25.636;2023-02-15T11:51:01;19.42;;;11.70;;
7477;SDS011;3780;42.424;25.636;2023-02-15T11:53:27;19.13;;;12.57;;
7477;SDS011;3780;42.424;25.636;2023-02-15T11:55:55;17.20;;;11.40;;
7477;SDS011;3780;42.424;25.636;2023-02-15T12:00:50;20.70;;;11.93;;
7477;SDS011;3780;42.424;25.636;2023-02-15T12:03:18;20.45;;;11.98;;
7477;SDS011;3780;42.424;25.636;2023-02-15T12:05:47;17.52;;;11.43;;
7477;SDS011;3780;42.424;25.636;2023-02-15T12:08:19;15.57;;;10.23;;
7477;SDS011;3780;42.424;25.636;2023-02-15T12:10:50;18.70;;;10.70;;
7477;SDS011;3780;42.424;25.636;2023-02-15T12:13:19;16.55;;;11.75;;
7477;SDS011;3780;42.424;25.636;2023-02-15T12:15:45;16.42;;;10.57;;
7477;SDS011;3780;42.424;25.636;2023-02-15T12:20:43;17.13;;;12.27;;
7477;SDS011;3780;42.424;25.636;2023-02-15T12:23:14;18.02;;;12.55;;
7477;SDS011;3780;42.424;25.636;2023-02-15T12:25:49;15.77;;;11.13;;
7477;SDS011;3780;42.424;25.636;2023-02-15T12:28:40;16.52;;;11.07;;
7477;SDS011;3780;42.424;25.636;2023-02-15T12:31:07;17.40;;;10.95;;
7477;SDS011;3780;42.424;25.636;2023-02-15T12:33:35;15.80;;;11.70;;
7477;SDS011;3780;42.424;25.636;2023-02-15T12:41:28;16.27;;;11.02;;
7477;SDS011;3780;42.424;25.636;2023-02-15T12:46:38;18.50;;;11.98;;
7477;SDS011;3780;42.424;25.636;2023-02-15T12:49:10;18.60;;;11.25;;
7477;SDS011;3780;42.424;25.636;2023-02-15T12:51:51;20.38;;;11.05;;
7477;SDS011;3780;42.424;25.636;2023-02-15T12:56:47;21.10;;;11.70;;
7477;SDS011;3780;42.424;25.636;2023-02-15T12:59:13;18.05;;;11.60;;
7477;SDS011;3780;42.424;25.636;2023-02-15T13:01:40;16.90;;;10.88;;
7477;SDS011;3780;42.424;25.636;2023-02-15T13:04:14;21.38;;;10.65;;
7477;SDS011;3780;42.424;25.636;2023-02-15T13:06:46;14.98;;;9.60;;
7477;SDS011;3780;42.424;25.636;2023-02-15T13:09:17;16.60;;;10.20;;
7477;SDS011;3780;42.424;25.636;2023-02-15T13:11:44;13.50;;;10.27;;
7477;SDS011;3780;42.424;25.636;2023-02-15T13:14:20;18.35;;;10.60;;
7477;SDS011;3780;42.424;25.636;2023-02-15T13:16:47;15.98;;;10.38;;
7477;SDS011;3780;42.424;25.636;2023-02-15T13:21:49;17.98;;;11.40;;
7477;SDS011;3780;42.424;25.636;2023-02-15T13:24:17;19.58;;;11.80;;
7477;SDS011;3780;42.424;25.636;2023-02-15T13:26:44;20.30;;;11.57;;
7477;SDS011;3780;42.424;25.636;2023-02-15T13:29:15;20.08;;;11.07;;
7477;SDS011;3780;42.424;25.636;2023-02-15T13:31:42;20.85;;;11.13;;
7477;SDS011;3780;42.424;25.636;2023-02-15T13:36:57;19.05;;;12.27;;
7477;SDS011;3780;42.424;25.636;2023-02-15T13:42:52;16.67;;;11.10;;
7477;SDS011;3780;42.424;25.636;2023-02-15T13:47:47;22.60;;;16.45;;
7477;SDS011;3780;42.424;25.636;2023-02-15T13:52:48;17.02;;;11.02;;
7477;SDS011;3780;42.424;25.636;2023-02-15T13:58:02;15.55;;;10.18;;
7477;SDS011;3780;42.424;25.636;2023-02-15T14:05:33;15.63;;;11.38;;
7477;SDS011;3780;42.424;25.636;2023-02-15T14:10:46;17.30;;;10.77;;
7477;SDS011;3780;42.424;25.636;2023-02-15T14:15:55;17.67;;;10.82;;
7477;SDS011;3780;42.424;25.636;2023-02-15T14:21:16;20.63;;;11.95;;
7477;SDS011;3780;42.424;25.636;2023-02-15T14:23:55;19.88;;;12.27;;
7477;SDS011;3780;42.424;25.636;2023-02-15T14:31:30;20.27;;;12.03;;
7477;SDS011;3780;42.424;25.636;2023-02-15T14:33:58;18.60;;;10.75;;
7477;SDS011;3780;42.424;25.636;2023-02-15T14:36:24;21.50;;;11.30;;
7477;SDS011;3780;42.424;25.636;2023-02-15T14:38:53;17.45;;;11.32;;
7477;SDS011;3780;42.424;25.636;2023-02-15T14:41:39;18.73;;;11.05;;
7477;SDS011;3780;42.424;25.636;2023-02-15T14:47:09;23.17;;;12.73;;
7477;SDS011;3780;42.424;25.636;2023-02-15T14:49:27;24.23;;;12.50;;
7477;SDS011;3780;42.424;25.636;2023-02-15T14:51:55;17.58;;;11.77;;
7477;SDS011;3780;42.424;25.636;2023-02-15T14:57:32;25.10;;;13.10;;
7477;SDS011;3780;42.424;25.636;2023-02-15T15:02:29;27.50;;;13.13;;
7477;SDS011;3780;42.424;25.636;2023-02-15T15:05:09;23.07;;;13.70;;
7477;SDS011;3780;42.424;25.636;2023-02-15T15:10:02;26.58;;;14.63;;
7477;SDS011;3780;42.424;25.636;2023-02-15T15:14:56;23.45;;;14.93;;
7477;SDS011;3780;42.424;25.636;2023-02-15T15:19:57;30.67;;;17.02;;
7477;SDS011;3780;42.424;25.636;2023-02-15T15:22:24;26.45;;;14.93;;
7477;SDS011;3780;42.424;25.636;2023-02-15T15:30:28;44.42;;;19.40;;
7477;SDS011;3780;42.424;25.636;2023-02-15T15:48:33;43.72;;;21.23;;
7477;SDS011;3780;42.424;25.636;2023-02-15T15:51:05;54.63;;;31.00;;
7477;SDS011;3780;42.424;25.636;2023-02-15T15:53:33;55.03;;;26.38;;
7477;SDS011;3780;42.424;25.636;2023-02-15T15:56:04;46.60;;;26.27;;
7477;SDS011;3780;42.424;25.636;2023-02-15T15:58:30;60.88;;;23.50;;
7477;SDS011;3780;42.424;25.636;2023-02-15T16:01:02;54.83;;;23.38;;
7477;SDS011;3780;42.424;25.636;2023-02-15T16:03:29;64.45;;;24.35;;
7477;SDS011;3780;42.424;25.636;2023-02-15T16:05:55;50.33;;;26.95;;
7477;SDS011;3780;42.424;25.636;2023-02-15T16:10:55;52.80;;;24.98;;
7477;SDS011;3780;42.424;25.636;2023-02-15T16:13:21;69.57;;;28.70;;
7477;SDS011;3780;42.424;25.636;2023-02-15T16:15:47;46.42;;;27.13;;
7477;SDS011;3780;42.424;25.636;2023-02-15T16:18:18;58.00;;;26.40;;
7477;SDS011;3780;42.424;25.636;2023-02-15T16:20:51;46.25;;;27.30;;
7477;SDS011;3780;42.424;25.636;2023-02-15T16:28:26;46.58;;;27.45;;
7477;SDS011;3780;42.424;25.636;2023-02-15T16:30:58;54.80;;;31.63;;
7477;SDS011;3780;42.424;25.636;2023-02-15T16:33:34;69.65;;;31.63;;
7477;SDS011;3780;42.424;25.636;2023-02-15T16:36:00;62.15;;;33.70;;
7477;SDS011;3780;42.424;25.636;2023-02-15T16:41:20;75.78;;;34.53;;
7477;SDS011;3780;42.424;25.636;2023-02-15T16:43:47;62.67;;;32.33;;
7477;SDS011;3780;42.424;25.636;2023-02-15T16:46:15;62.33;;;31.80;;
7477;SDS011;3780;42.424;25.636;2023-02-15T16:48:42;64.75;;;32.20;;
7477;SDS011;3780;42.424;25.636;2023-02-15T16:51:08;60.67;;;30.23;;
7477;SDS011;3780;42.424;25.636;2023-02-15T16:53:34;76.85;;;32.85;;
7477;SDS011;3780;42.424;25.636;2023-02-15T16:56:00;62.10;;;30.80;;
7477;SDS011;3780;42.424;25.636;2023-02-15T17:00:56;50.13;;;28.63;;
7477;SDS011;3780;42.424;25.636;2023-02-15T17:03:22;46.67;;;28.88;;
7477;SDS011;3780;42.424;25.636;2023-02-15T17:05:49;50.63;;;29.10;;
7477;SDS011;3780;42.424;25.636;2023-02-15T17:10:42;47.33;;;26.50;;
7477;SDS011;3780;42.424;25.636;2023-02-15T17:13:16;45.72;;;27.15;;
7477;SDS011;3780;42.424;25.636;2023-02-15T17:15:42;46.97;;;26.27;;
7477;SDS011;3780;42.424;25.636;2023-02-15T17:18:14;39.97;;;25.75;;
7477;SDS011;3780;42.424;25.636;2023-02-15T17:20:40;50.25;;;28.52;;
7477;SDS011;3780;42.424;25.636;2023-02-15T17:23:21;41.53;;;26.95;;
7477;SDS011;3780;42.424;25.636;2023-02-15T17:25:47;46.17;;;29.00;;
7477;SDS011;3780;42.424;25.636;2023-02-15T17:28:20;59.63;;;31.20;;
7477;SDS011;3780;42.424;25.636;2023-02-15T17:30:46;53.55;;;30.38;;
7477;SDS011;3780;42.424;25.636;2023-02-15T17:33:19;50.58;;;29.85;;
7477;SDS011;3780;42.424;25.636;2023-02-15T17:36:01;68.82;;;35.00;;
7477;SDS011;3780;42.424;25.636;2023-02-15T17:38:26;63.78;;;34.90;;
7477;SDS011;3780;42.424;25.636;2023-02-15T17:40:52;55.13;;;32.67;;
7477;SDS011;3780;42.424;25.636;2023-02-15T17:43:17;53.42;;;31.50;;
7477;SDS011;3780;42.424;25.636;2023-02-15T17:45:44;67.15;;;33.63;;
7477;SDS011;3780;42.424;25.636;2023-02-15T17:48:18;48.20;;;29.98;;
7477;SDS011;3780;42.424;25.636;2023-02-15T17:50:45;45.92;;;28.58;;
7477;SDS011;3780;42.424;25.636;2023-02-15T17:53:10;42.58;;;26.83;;
7477;SDS011;3780;42.424;25.636;2023-02-15T17:55:36;44.35;;;25.73;;
7477;SDS011;3780;42.424;25.636;2023-02-15T18:00:43;36.92;;;24.17;;
7477;SDS011;3780;42.424;25.636;2023-02-15T18:03:29;36.55;;;23.80;;